Portada
METAR-TAF:

METAR-TAF

Aeropuertos :

Kimberley, Sudáfrica

latitud: 28-48S, longitud: 024-46E, altitud: 1198 m

Observación

El informe se hizo hace 56 minutos, a las 09:00 UTC
Viento 6 kt del oeste
Temperatura 18°C
Humedad 39%
Presión 1023 hPa
Visibilidad 10 km o más
sin nubes por debajo de 1500 m y sin presencia de cumulonimbus.

METAR: FAKM 080900Z 27006KT CAVOK 18/04 Q1023

Hora: 11:56 (09:56 UTC)

Pronóstico

El informe se hizo hace 56 minutos, a las 09:00 UTC
Pronóstico válido del 08 a las 10 UTC al 08 a las 18 UTC
Viento 3 kt con dirección variable
Visibilidad 10 km o más
sin nubes por debajo de 1500 m y sin presencia de cumulonimbus.
Evolucionando progresivamente
del 08 a las 10 UTC al 08 a las 12 UTC
Viento 10 kt del suroeste

TAF: FAKM 080900Z 0810/0818 VRB03KT CAVOK TX20/0812Z TN14/0818Z BECMG 0810/0812 22010KT

Observaciones y pronósticos meteorológicos de más de 4000 aeropuertos (mensajes METAR y TAF).

Los puntos amarillos y rojos representan las estaciones disponibles.

Ponga el ratón en el punto deseado para ver el nombre de la estación.

Haga clic para ver las observaciones y los pronósticos meteorológicos.

Para cambiar el mapa : haga clic en los botones verdes con una cruz de color negro para hacer un zoom, en el botón verde con un guión para alejar o en las flechas verdes para mapas adyacentes.


METAR-TAF: